createdAt,value
2019-05-17T00:01:33.810Z,99.48
2019-05-17T00:04:04.263Z,99.31
2019-05-17T00:06:36.808Z,99.25
2019-05-17T00:09:26.816Z,99.29
2019-05-17T00:12:09.418Z,99.47
2019-05-17T00:14:39.827Z,99.59
2019-05-17T00:17:10.298Z,99.68
2019-05-17T00:19:40.702Z,99.73
2019-05-17T00:22:11.275Z,99.78
2019-05-17T00:24:41.660Z,99.87
2019-05-17T00:27:12.176Z,100.00
2019-05-17T00:29:42.576Z,100.00
2019-05-17T00:32:13.047Z,100.00
2019-05-17T00:35:02.968Z,100.00
2019-05-17T00:37:33.397Z,100.00
2019-05-17T00:40:03.905Z,100.00
2019-05-17T00:42:34.374Z,100.00
2019-05-17T00:45:06.768Z,100.00
2019-05-17T00:47:48.719Z,100.00
2019-05-17T00:50:19.256Z,100.00
2019-05-17T00:52:49.701Z,100.00
2019-05-17T00:55:26.803Z,99.78
2019-05-17T00:58:09.542Z,99.67
2019-05-17T01:00:40.018Z,99.64
2019-05-17T01:03:10.570Z,99.59
2019-05-17T01:05:41.040Z,99.62
2019-05-17T01:08:11.524Z,99.72
2019-05-17T01:10:41.907Z,99.86
2019-05-17T01:13:12.497Z,100.00
2019-05-17T01:15:42.851Z,100.00
2019-05-17T01:18:13.381Z,100.00
2019-05-17T01:23:57.829Z,100.00
2019-05-17T01:26:28.309Z,100.00
2019-05-17T01:28:58.879Z,100.00
2019-05-17T01:31:29.268Z,100.00
2019-05-17T01:34:19.122Z,100.00
2019-05-17T01:36:49.493Z,100.00
2019-05-17T01:39:21.472Z,100.00
2019-05-17T01:42:03.407Z,100.00
2019-05-17T01:44:33.807Z,100.00
2019-05-17T01:47:04.166Z,100.00
2019-05-17T01:49:36.290Z,100.00
2019-05-17T01:52:27.331Z,100.00
2019-05-17T01:55:09.209Z,100.00
2019-05-17T01:57:39.707Z,100.00
2019-05-17T02:00:37.300Z,100.00
2019-05-17T02:03:12.362Z,100.00
2019-05-17T02:05:42.859Z,100.00
2019-05-17T02:08:13.389Z,100.00
2019-05-17T02:10:44.069Z,100.00
2019-05-17T02:13:16.413Z,100.00
2019-05-17T02:15:57.721Z,100.00
2019-05-17T02:18:28.162Z,100.00
2019-05-17T02:20:58.585Z,100.00
2019-05-17T02:23:28.973Z,100.00
2019-05-17T02:25:59.396Z,100.00
2019-05-17T02:28:32.033Z,100.00
2019-05-17T02:31:07.340Z,100.00
2019-05-17T02:33:38.074Z,100.00
2019-05-17T02:36:46.647Z,100.00
2019-05-17T02:39:17.113Z,100.00
2019-05-17T02:41:47.634Z,100.00
2019-05-17T02:44:18.052Z,100.00
2019-05-17T02:46:48.464Z,100.00
2019-05-17T02:49:19.008Z,100.00
2019-05-17T02:52:08.789Z,100.00
2019-05-17T02:54:39.179Z,100.00
2019-05-17T02:57:09.569Z,100.00
2019-05-17T02:59:43.151Z,100.00
2019-05-17T03:02:27.704Z,100.00
2019-05-17T03:05:08.116Z,100.00
2019-05-17T03:07:38.482Z,100.00
2019-05-17T03:10:29.131Z,100.00
2019-05-17T03:13:05.881Z,100.00
2019-05-17T03:15:36.259Z,100.00
2019-05-17T03:18:06.717Z,100.00
2019-05-17T03:20:37.122Z,100.00
2019-05-17T03:23:07.499Z,100.00
2019-05-17T03:25:57.252Z,100.00
2019-05-17T03:28:27.727Z,100.00
2019-05-17T03:30:58.132Z,100.00
2019-05-17T03:33:28.825Z,100.00
2019-05-17T03:36:05.385Z,100.00
2019-05-17T03:38:53.423Z,100.00
2019-05-17T03:41:34.327Z,100.00
2019-05-17T03:44:17.499Z,100.00
2019-05-17T03:46:47.885Z,100.00
2019-05-17T03:49:18.356Z,100.00
2019-05-17T03:51:48.698Z,100.00
2019-05-17T03:54:22.417Z,100.00
2019-05-17T03:57:03.097Z,100.00
2019-05-17T03:59:45.927Z,100.00
2019-05-17T04:02:16.382Z,100.00
2019-05-17T04:04:52.703Z,100.00
2019-05-17T04:07:33.262Z,100.00
2019-05-17T04:10:04.621Z,100.00
2019-05-17T04:12:44.080Z,100.00
2019-05-17T04:15:24.384Z,100.00
2019-05-17T04:18:07.234Z,100.00
2019-05-17T04:20:37.595Z,100.00
2019-05-17T04:23:07.977Z,100.00
2019-05-17T04:25:57.782Z,100.00
2019-05-17T04:28:28.214Z,100.00
2019-05-17T04:31:17.993Z,100.00
2019-05-17T04:33:48.463Z,100.00
2019-05-17T04:36:22.243Z,99.84
2019-05-17T04:39:02.558Z,99.56
2019-05-17T04:41:49.941Z,99.26
2019-05-17T04:44:28.817Z,98.81
2019-05-17T04:47:06.666Z,98.24
2019-05-17T04:49:37.151Z,97.76
2019-05-17T04:52:07.554Z,97.18
2019-05-17T04:54:38.026Z,96.56
2019-05-17T04:57:08.424Z,95.98
2019-05-17T04:59:38.856Z,95.26
2019-05-17T05:02:09.268Z,94.31
2019-05-17T05:04:43.229Z,93.55
2019-05-17T05:07:33.570Z,93.59
2019-05-17T05:10:14.697Z,93.89
2019-05-17T05:12:45.089Z,93.95
2019-05-17T05:15:53.923Z,93.79
2019-05-17T05:18:24.306Z,93.24
2019-05-17T05:20:54.733Z,92.27
2019-05-17T05:23:25.147Z,91.74
2019-05-17T05:25:55.613Z,91.27
2019-05-17T05:28:26.084Z,90.75
2019-05-17T05:30:56.484Z,90.27
2019-05-17T05:33:26.947Z,89.83
2019-05-17T05:35:57.434Z,89.28
2019-05-17T05:38:27.925Z,88.84
2019-05-17T05:40:58.330Z,88.66
2019-05-17T05:43:28.758Z,88.06
2019-05-17T05:45:59.310Z,87.37
2019-05-17T05:48:32.370Z,86.34
2019-05-17T05:51:13.707Z,85.62
2019-05-17T05:53:52.191Z,85.16
2019-05-17T05:56:33.532Z,84.70
2019-05-17T05:59:03.905Z,83.54
2019-05-17T06:01:34.394Z,82.70
2019-05-17T06:04:04.838Z,82.15
2019-05-17T06:06:35.364Z,81.48
2019-05-17T06:09:08.197Z,81.01
2019-05-17T06:11:38.647Z,79.58
2019-05-17T06:14:09.040Z,79.03
2019-05-17T06:16:39.516Z,77.97
2019-05-17T06:19:11.673Z,77.47
2019-05-17T06:21:52.883Z,77.14
2019-05-17T06:24:23.262Z,76.50
2019-05-17T06:26:53.683Z,75.78
2019-05-17T06:29:24.110Z,75.36
2019-05-17T06:31:54.513Z,75.03
2019-05-17T06:34:24.952Z,75.20
2019-05-17T06:36:55.444Z,74.97
2019-05-17T06:39:25.920Z,75.00
2019-05-17T06:41:56.348Z,75.03
2019-05-17T06:44:26.755Z,75.31
2019-05-17T06:46:57.170Z,74.92
2019-05-17T06:49:27.593Z,73.97
2019-05-17T06:52:17.383Z,72.82
2019-05-17T06:54:47.829Z,71.95
2019-05-17T06:57:18.214Z,71.88
2019-05-17T06:59:48.652Z,71.75
2019-05-17T07:02:19.726Z,71.43
2019-05-17T07:07:56.228Z,70.93
2019-05-17T07:10:26.642Z,71.09
2019-05-17T07:12:59.651Z,70.21
2019-05-17T07:15:47.515Z,70.11
2019-05-17T07:18:23.082Z,69.56
2019-05-17T07:20:53.486Z,68.79
2019-05-17T07:23:23.990Z,68.53
2019-05-17T07:25:54.365Z,68.70
2019-05-17T07:28:24.816Z,68.71
2019-05-17T07:31:07.181Z,68.34
2019-05-17T07:33:39.805Z,68.48
2019-05-17T07:36:20.466Z,68.38
2019-05-17T07:38:50.973Z,68.68
2019-05-17T07:41:21.331Z,69.01
2019-05-17T07:43:51.819Z,68.89
2019-05-17T07:46:22.299Z,69.04
2019-05-17T07:48:52.808Z,69.52
2019-05-17T07:51:23.330Z,69.60
2019-05-17T07:53:53.867Z,69.38
2019-05-17T07:56:24.444Z,68.79
2019-05-17T07:58:55.007Z,68.95
2019-05-17T08:01:25.455Z,69.20
2019-05-17T08:03:56.172Z,69.32
2019-05-17T08:06:26.626Z,69.21
2019-05-17T08:09:01.159Z,68.48
2019-05-17T08:11:40.062Z,67.81
2019-05-17T08:14:10.689Z,67.26
2019-05-17T08:16:41.024Z,67.27
2019-05-17T08:19:11.544Z,67.68
2019-05-17T08:21:41.927Z,67.01
2019-05-17T08:24:12.437Z,65.50
2019-05-17T08:26:42.794Z,65.16
2019-05-17T08:29:13.228Z,65.16
2019-05-17T08:31:43.643Z,64.39
2019-05-17T08:34:14.065Z,64.10
2019-05-17T08:36:44.440Z,63.06
2019-05-17T08:39:15.237Z,63.12
2019-05-17T08:41:45.812Z,63.68
2019-05-17T08:44:16.390Z,63.82
2019-05-17T08:46:46.934Z,63.82
2019-05-17T08:49:17.427Z,63.01
2019-05-17T08:51:49.935Z,61.24
2019-05-17T08:54:33.406Z,60.82
2019-05-17T08:57:04.100Z,59.54
2019-05-17T08:59:34.594Z,58.38
2019-05-17T09:02:10.645Z,56.73
2019-05-17T09:05:00.433Z,55.45
2019-05-17T09:07:44.450Z,55.00
2019-05-17T09:10:15.078Z,54.25
2019-05-17T09:12:45.566Z,54.67
2019-05-17T09:18:12.839Z,54.71
2019-05-17T09:20:43.258Z,54.57
2019-05-17T09:23:16.890Z,55.70
2019-05-17T09:25:50.148Z,54.78
2019-05-17T09:28:27.119Z,54.18
2019-05-17T09:30:59.692Z,54.06
2019-05-17T09:33:49.730Z,54.64
2019-05-17T09:36:32.082Z,55.63
2019-05-17T09:39:02.499Z,55.34
2019-05-17T09:41:52.289Z,54.44
2019-05-17T09:44:22.775Z,53.46
2019-05-17T09:46:53.113Z,53.03
2019-05-17T09:49:23.585Z,53.01
2019-05-17T09:51:54.127Z,53.34
2019-05-17T09:54:45.398Z,53.68
2019-05-17T09:57:36.075Z,52.23
2019-05-17T10:00:09.691Z,51.77
2019-05-17T10:03:00.053Z,51.91
2019-05-17T10:05:41.591Z,52.82
2019-05-17T10:08:12.138Z,54.30
2019-05-17T10:11:08.615Z,53.82
2019-05-17T10:13:45.588Z,53.56
2019-05-17T10:16:16.112Z,53.07
2019-05-17T10:18:46.683Z,53.55
2019-05-17T10:21:17.063Z,53.37
2019-05-17T10:23:49.693Z,52.84
2019-05-17T10:26:30.697Z,53.33
2019-05-17T10:29:01.165Z,53.18
2019-05-17T10:31:31.701Z,52.82
2019-05-17T10:34:02.240Z,50.51
2019-05-17T10:36:32.665Z,49.05
2019-05-17T10:39:03.081Z,47.90
2019-05-17T10:41:33.513Z,47.27
2019-05-17T10:44:04.241Z,46.03
2019-05-17T10:46:34.759Z,46.72
2019-05-17T10:49:05.270Z,45.74
2019-05-17T10:51:35.825Z,45.20
2019-05-17T10:54:06.267Z,44.62
2019-05-17T10:56:36.861Z,43.25
2019-05-17T10:59:09.660Z,42.56
2019-05-17T11:01:50.309Z,42.78
2019-05-17T11:04:32.924Z,43.14
2019-05-17T11:07:22.817Z,44.41
2019-05-17T11:09:53.292Z,45.33
2019-05-17T11:12:25.303Z,45.49
2019-05-17T11:15:09.818Z,45.14
2019-05-17T11:17:38.704Z,44.73
2019-05-17T11:23:11.206Z,45.29
2019-05-17T11:25:45.531Z,45.33
2019-05-17T11:28:25.133Z,44.91
2019-05-17T11:30:55.817Z,44.49
2019-05-17T11:33:26.183Z,44.24
2019-05-17T11:35:56.717Z,43.95
2019-05-17T11:38:27.233Z,43.07
2019-05-17T11:40:57.636Z,42.42
2019-05-17T11:43:28.276Z,42.94
2019-05-17T11:45:58.719Z,43.77
2019-05-17T11:48:29.393Z,44.70
2019-05-17T11:50:59.886Z,45.30
2019-05-17T11:53:30.395Z,45.01
2019-05-17T11:56:01.019Z,44.55
2019-05-17T11:58:33.048Z,43.77
2019-05-17T12:01:03.476Z,42.97
2019-05-17T12:03:33.892Z,43.36
2019-05-17T12:06:23.712Z,42.99
2019-05-17T12:08:54.216Z,42.26
2019-05-17T12:11:24.618Z,42.88
2019-05-17T12:13:55.026Z,42.99
2019-05-17T12:16:25.470Z,42.74
2019-05-17T12:18:55.882Z,42.30
2019-05-17T12:21:26.357Z,43.45
2019-05-17T12:23:56.907Z,44.10
2019-05-17T12:26:27.410Z,44.18
2019-05-17T12:28:57.858Z,43.85
2019-05-17T12:31:28.365Z,43.09
2019-05-17T12:33:58.813Z,43.30
2019-05-17T12:36:29.257Z,42.58
2019-05-17T12:38:59.679Z,42.38
2019-05-17T12:41:30.118Z,42.14
2019-05-17T12:44:00.523Z,42.17
2019-05-17T12:46:30.957Z,41.50
2019-05-17T12:49:02.091Z,41.10
2019-05-17T12:51:53.023Z,40.11
2019-05-17T12:54:23.437Z,40.08
2019-05-17T12:56:54.021Z,40.85
2019-05-17T12:59:24.423Z,40.37
2019-05-17T13:01:54.991Z,39.96
2019-05-17T13:04:25.478Z,39.37
2019-05-17T13:06:55.972Z,39.77
2019-05-17T13:09:26.517Z,40.58
2019-05-17T13:11:57.318Z,40.04
2019-05-17T13:14:28.105Z,40.40
2019-05-17T13:16:58.482Z,39.94
2019-05-17T13:19:28.906Z,40.43
2019-05-17T13:21:59.341Z,39.51
2019-05-17T13:24:29.771Z,39.82
2019-05-17T13:27:00.247Z,39.80
2019-05-17T13:29:30.853Z,38.94
2019-05-17T13:32:01.299Z,39.63
2019-05-17T13:34:31.817Z,40.22
2019-05-17T13:37:02.262Z,40.60
2019-05-17T13:39:52.060Z,40.08
2019-05-17T13:42:22.593Z,39.80
2019-05-17T13:44:53.121Z,39.42
2019-05-17T13:47:23.696Z,39.83
2019-05-17T13:49:54.186Z,38.32
2019-05-17T13:52:24.718Z,38.45
2019-05-17T13:54:55.173Z,38.63
2019-05-17T13:57:25.677Z,38.48
2019-05-17T13:59:56.167Z,37.99
2019-05-17T14:02:26.547Z,38.66
2019-05-17T14:04:57.098Z,38.75
2019-05-17T14:07:27.553Z,37.80
2019-05-17T14:09:58.009Z,36.24
2019-05-17T14:12:28.341Z,35.77
2019-05-17T14:14:58.916Z,34.16
2019-05-17T14:17:29.324Z,32.86
2019-05-17T14:19:59.908Z,32.77
2019-05-17T14:22:30.296Z,32.54
2019-05-17T14:25:00.839Z,31.45
2019-05-17T14:27:31.244Z,30.17
2019-05-17T14:30:01.811Z,30.54
2019-05-17T14:32:32.180Z,30.59
2019-05-17T14:35:02.779Z,29.69
2019-05-17T14:37:33.176Z,28.66
2019-05-17T14:40:03.690Z,27.43
2019-05-17T14:42:34.180Z,27.47
2019-05-17T14:45:04.842Z,26.86
2019-05-17T14:47:35.239Z,27.09
2019-05-17T14:50:05.877Z,26.82
2019-05-17T14:52:36.271Z,26.33
2019-05-17T14:55:06.793Z,27.18
2019-05-17T14:57:37.299Z,26.78
2019-05-17T15:00:14.082Z,27.05
2019-05-17T15:02:44.492Z,26.60
2019-05-17T15:05:15.129Z,27.48
2019-05-17T15:07:45.530Z,27.44
2019-05-17T15:10:16.163Z,26.40
2019-05-17T15:12:46.825Z,25.18
2019-05-17T15:15:25.628Z,24.29
2019-05-17T15:17:59.641Z,24.62
2019-05-17T15:20:30.075Z,25.11
2019-05-17T15:23:19.850Z,24.98
2019-05-17T15:25:50.375Z,24.95
2019-05-17T15:28:20.733Z,25.49
2019-05-17T15:30:51.250Z,25.98
2019-05-17T15:33:21.635Z,28.05
2019-05-17T15:36:11.473Z,27.79
2019-05-17T15:39:01.251Z,26.62
2019-05-17T15:41:31.742Z,26.75
2019-05-17T15:44:02.316Z,27.04
2019-05-17T15:46:32.700Z,25.65
2019-05-17T15:49:23.634Z,25.70
2019-05-17T15:52:13.467Z,24.86
2019-05-17T15:54:43.868Z,25.16
2019-05-17T15:57:14.366Z,25.61
2019-05-17T15:59:44.780Z,24.43
2019-05-17T16:02:15.190Z,23.78
2019-05-17T16:04:45.633Z,22.87
2019-05-17T16:07:16.081Z,24.00
2019-05-17T16:09:46.638Z,24.24
2019-05-17T16:12:17.072Z,24.01
2019-05-17T16:14:47.492Z,24.56
2019-05-17T16:17:17.978Z,25.55
2019-05-17T16:19:48.373Z,25.47
2019-05-17T16:22:18.823Z,25.49
2019-05-17T16:24:49.316Z,25.40
2019-05-17T16:27:19.742Z,24.68
2019-05-17T16:29:50.124Z,25.07
2019-05-17T16:32:20.665Z,25.41
2019-05-17T16:34:51.152Z,25.55
2019-05-17T16:37:21.700Z,25.80
2019-05-17T16:39:52.223Z,26.10
2019-05-17T16:42:22.655Z,25.96
2019-05-17T16:44:53.014Z,26.99
2019-05-17T16:47:42.842Z,27.35
2019-05-17T16:50:13.352Z,28.30
2019-05-17T16:52:43.821Z,27.21
2019-05-17T16:58:39.483Z,28.39
2019-05-17T17:01:10.089Z,32.09
2019-05-17T17:03:44.269Z,33.30
2019-05-17T17:06:23.971Z,32.73
2019-05-17T17:09:13.842Z,32.65
2019-05-17T17:11:45.807Z,31.98
2019-05-17T17:14:27.822Z,31.54
2019-05-17T17:16:58.221Z,32.23
2019-05-17T17:19:28.811Z,32.89
2019-05-17T17:22:18.652Z,33.14
2019-05-17T17:28:10.506Z,33.84
2019-05-17T17:30:40.993Z,35.04
2019-05-17T17:33:11.468Z,35.14
2019-05-17T17:35:41.968Z,36.12
2019-05-17T17:38:12.927Z,35.74
2019-05-17T17:41:02.724Z,35.87
2019-05-17T17:43:33.240Z,39.39
2019-05-17T17:46:03.734Z,43.96
2019-05-17T17:48:34.120Z,47.66
2019-05-17T17:51:04.587Z,50.38
2019-05-17T17:53:54.402Z,53.01
2019-05-17T17:56:44.167Z,55.41
2019-05-17T17:59:14.711Z,57.76
2019-05-17T18:01:45.175Z,59.23
2019-05-17T18:04:16.312Z,61.07
2019-05-17T18:07:06.137Z,62.25
2019-05-17T18:09:36.681Z,63.58
2019-05-17T18:12:07.188Z,65.08
2019-05-17T18:14:57.025Z,66.13
2019-05-17T18:17:27.445Z,66.93
2019-05-17T18:19:57.898Z,67.94
2019-05-17T18:22:28.270Z,69.15
2019-05-17T18:24:58.714Z,69.58
2019-05-17T18:27:29.161Z,70.42
2019-05-17T18:29:59.680Z,71.01
2019-05-17T18:32:49.490Z,71.68
2019-05-17T18:35:19.989Z,72.39
2019-05-17T18:37:50.374Z,73.18
2019-05-17T18:40:20.846Z,73.50
2019-05-17T18:42:51.217Z,73.80
2019-05-17T18:45:41.064Z,74.19
2019-05-17T18:48:11.604Z,74.72
2019-05-17T18:50:42.124Z,75.65
2019-05-17T18:53:16.820Z,76.11
2019-05-17T18:55:56.598Z,76.66
2019-05-17T18:58:27.027Z,76.98
2019-05-17T19:00:57.442Z,77.06
2019-05-17T19:03:27.880Z,77.43
2019-05-17T19:05:58.427Z,77.73
2019-05-17T19:08:50.937Z,78.19
2019-05-17T19:11:21.401Z,78.74
2019-05-17T19:13:52.001Z,79.00
2019-05-17T19:16:22.513Z,79.42
2019-05-17T19:18:52.893Z,79.84
2019-05-17T19:21:23.320Z,79.60
2019-05-17T19:23:53.815Z,79.29
2019-05-17T19:26:24.496Z,79.13
2019-05-17T19:28:54.926Z,79.45
2019-05-17T19:31:25.321Z,79.78
2019-05-17T19:33:55.873Z,79.54
2019-05-17T19:36:45.687Z,79.70
2019-05-17T19:39:16.124Z,79.97
2019-05-17T19:41:46.567Z,80.05
2019-05-17T19:44:16.991Z,80.11
2019-05-17T19:47:06.790Z,80.27
2019-05-17T19:49:37.305Z,80.44
2019-05-17T19:52:27.138Z,80.21
2019-05-17T19:54:57.576Z,80.68
2019-05-17T19:57:47.421Z,81.06
2019-05-17T20:00:37.250Z,81.56
2019-05-17T20:03:07.637Z,81.78
2019-05-17T20:05:38.023Z,81.69
2019-05-17T20:08:08.516Z,81.70
2019-05-17T20:10:39.010Z,81.89
2019-05-17T20:13:09.435Z,82.29
2019-05-17T20:15:39.808Z,82.51
2019-05-17T20:18:10.640Z,82.55
2019-05-17T20:20:41.032Z,82.81
2019-05-17T20:23:11.568Z,83.36
2019-05-17T20:25:42.012Z,83.59
2019-05-17T20:28:12.533Z,83.58
2019-05-17T20:31:02.318Z,83.82
2019-05-17T20:33:32.756Z,84.09
2019-05-17T20:36:03.209Z,84.41
2019-05-17T20:38:33.651Z,84.29
2019-05-17T20:41:04.079Z,84.28
2019-05-17T20:43:34.512Z,84.53
2019-05-17T20:46:04.963Z,85.01
2019-05-17T20:48:35.351Z,85.37
2019-05-17T20:51:05.798Z,85.37
2019-05-17T20:53:36.235Z,85.36
2019-05-17T20:56:06.649Z,85.71
2019-05-17T20:58:37.096Z,86.17
2019-05-17T21:01:07.562Z,86.28
2019-05-17T21:03:37.956Z,86.50
2019-05-17T21:06:08.442Z,86.54
2019-05-17T21:08:46.181Z,86.85
2019-05-17T21:11:30.346Z,87.29
2019-05-17T21:14:00.856Z,87.42
2019-05-17T21:16:31.249Z,87.67
2019-05-17T21:19:01.651Z,88.07
2019-05-17T21:21:32.114Z,88.47
2019-05-17T21:24:02.698Z,88.32
2019-05-17T21:26:33.171Z,88.34
2019-05-17T21:29:03.597Z,88.25
2019-05-17T21:31:33.999Z,88.37
2019-05-17T21:34:04.515Z,88.38
2019-05-17T21:36:35.003Z,88.30
2019-05-17T21:42:08.168Z,88.58
2019-05-17T21:44:38.643Z,88.80
2019-05-17T21:47:09.072Z,89.17
2019-05-17T21:49:39.515Z,89.60
2019-05-17T21:52:10.104Z,90.02
2019-05-17T21:54:40.794Z,90.19
2019-05-17T21:57:11.499Z,90.51
2019-05-17T21:59:41.903Z,90.70
2019-05-17T22:02:12.362Z,90.88
2019-05-17T22:04:42.730Z,90.68
2019-05-17T22:07:13.171Z,90.86
2019-05-17T22:09:43.634Z,91.10
2019-05-17T22:12:33.479Z,91.05
2019-05-17T22:15:23.273Z,91.25
2019-05-17T22:18:13.171Z,91.14
2019-05-17T22:21:03.039Z,91.47
2019-05-17T22:23:52.848Z,91.97
2019-05-17T22:26:23.240Z,92.23
2019-05-17T22:28:53.600Z,92.40
2019-05-17T22:31:24.033Z,92.85
2019-05-17T22:33:54.417Z,93.13
2019-05-17T22:36:24.844Z,93.39
2019-05-17T22:38:55.342Z,93.48
2019-05-17T22:41:25.746Z,93.46
2019-05-17T22:43:56.130Z,93.60
2019-05-17T22:46:35.565Z,93.84
2019-05-17T22:49:18.105Z,93.97
2019-05-17T22:51:48.650Z,94.13
2019-05-17T22:54:19.058Z,94.12
2019-05-17T22:56:49.596Z,94.12
2019-05-17T22:59:19.969Z,94.44
2019-05-17T23:01:50.451Z,94.55
2019-05-17T23:04:20.851Z,94.69
2019-05-17T23:06:51.334Z,94.70
2019-05-17T23:09:21.775Z,94.56
2019-05-17T23:11:52.296Z,94.61
2019-05-17T23:14:22.679Z,94.73
2019-05-17T23:16:53.120Z,95.04
2019-05-17T23:19:23.493Z,95.15
2019-05-17T23:21:53.953Z,95.18
2019-05-17T23:24:24.405Z,94.90
2019-05-17T23:26:54.835Z,94.61
2019-05-17T23:29:25.203Z,94.53
2019-05-17T23:31:55.700Z,94.61
2019-05-17T23:34:26.111Z,94.87
2019-05-17T23:36:56.485Z,94.97
2019-05-17T23:39:46.241Z,95.06
2019-05-17T23:42:16.742Z,95.05
2019-05-17T23:44:47.112Z,95.00
2019-05-17T23:47:17.648Z,94.77
2019-05-17T23:49:48.032Z,94.75
2019-05-17T23:52:18.454Z,94.64
2019-05-17T23:54:48.836Z,94.50
2019-05-17T23:57:19.330Z,94.24
2019-05-17T23:59:49.709Z,94.16
